createdAt,value
2023-06-04T00:02:17.853Z,14.08
2023-06-04T00:05:05.215Z,14.00
2023-06-04T00:07:53.273Z,13.95
2023-06-04T00:10:41.006Z,13.89
2023-06-04T00:13:28.519Z,13.90
2023-06-04T00:16:15.437Z,13.80
2023-06-04T00:19:03.903Z,13.84
2023-06-04T00:21:51.006Z,13.60
2023-06-04T00:24:39.707Z,13.56
2023-06-04T00:27:26.594Z,13.54
2023-06-04T00:30:13.891Z,13.42
2023-06-04T00:33:02.836Z,13.51
2023-06-04T00:35:49.748Z,13.54
2023-06-04T00:38:36.735Z,13.47
2023-06-04T00:41:23.658Z,13.52
2023-06-04T00:44:10.639Z,13.52
2023-06-04T00:46:57.710Z,13.54
2023-06-04T00:49:44.628Z,13.51
2023-06-04T00:52:31.557Z,13.47
2023-06-04T00:55:19.700Z,13.43
2023-06-04T00:58:06.626Z,13.34
2023-06-04T01:00:57.778Z,13.41
2023-06-04T01:03:50.425Z,13.36
2023-06-04T01:06:40.633Z,13.35
2023-06-04T01:09:29.036Z,13.34
2023-06-04T01:12:16.034Z,13.31
2023-06-04T01:15:02.998Z,13.31
2023-06-04T01:17:54.021Z,13.31
2023-06-04T01:20:47.402Z,13.17
2023-06-04T01:24:02.088Z,13.19
2023-06-04T01:26:51.188Z,12.98
2023-06-04T01:29:38.126Z,12.91
2023-06-04T01:32:26.232Z,12.97
2023-06-04T01:35:13.284Z,12.84
2023-06-04T01:38:00.303Z,12.79
2023-06-04T01:40:48.142Z,12.73
2023-06-04T01:43:36.702Z,12.76
2023-06-04T01:46:25.319Z,12.75
2023-06-04T01:49:12.292Z,12.75
2023-06-04T01:51:59.233Z,12.82
2023-06-04T01:54:46.975Z,12.72
2023-06-04T01:57:35.181Z,12.60
2023-06-04T02:00:22.099Z,12.53
2023-06-04T02:03:09.822Z,12.55
2023-06-04T02:05:56.821Z,12.56
2023-06-04T02:08:43.703Z,12.55
2023-06-04T02:11:30.600Z,12.57
2023-06-04T02:14:17.542Z,12.51
2023-06-04T02:17:05.608Z,12.59
2023-06-04T02:19:52.460Z,12.52
2023-06-04T02:22:39.345Z,12.43
2023-06-04T02:25:26.424Z,12.33
2023-06-04T02:28:14.285Z,12.32
2023-06-04T02:31:01.129Z,12.35
2023-06-04T02:33:48.097Z,12.36
2023-06-04T02:36:35.247Z,12.33
2023-06-04T02:39:22.248Z,12.36
2023-06-04T02:42:09.409Z,12.31
2023-06-04T02:44:56.315Z,12.26
2023-06-04T02:47:43.332Z,12.23
2023-06-04T02:50:30.305Z,12.21
2023-06-04T02:53:17.160Z,11.93
2023-06-04T02:56:04.159Z,11.89
2023-06-04T02:58:56.706Z,11.88
2023-06-04T03:01:44.446Z,11.91
2023-06-04T03:04:35.292Z,11.93
2023-06-04T03:07:23.891Z,11.93
2023-06-04T03:10:11.961Z,11.94
2023-06-04T03:12:58.871Z,11.99
2023-06-04T03:15:47.620Z,12.03
2023-06-04T03:18:34.958Z,12.11
2023-06-04T03:21:21.960Z,12.03
2023-06-04T03:24:08.899Z,12.08
2023-06-04T03:26:55.791Z,12.20
2023-06-04T03:29:42.716Z,12.29
2023-06-04T03:32:29.938Z,12.39
2023-06-04T03:35:17.009Z,12.51
2023-06-04T03:38:04.104Z,12.46
2023-06-04T03:40:51.051Z,12.35
2023-06-04T03:43:37.921Z,12.34
2023-06-04T03:46:30.589Z,12.41
2023-06-04T03:49:19.318Z,12.55
2023-06-04T03:52:06.470Z,12.67
2023-06-04T03:54:53.349Z,12.82
2023-06-04T03:57:40.232Z,12.74
2023-06-04T04:00:27.884Z,12.68
2023-06-04T04:03:14.831Z,12.71
2023-06-04T04:06:01.727Z,12.77
2023-06-04T04:08:49.645Z,12.80
2023-06-04T04:11:36.558Z,12.85
2023-06-04T04:14:23.552Z,12.86
2023-06-04T04:17:10.489Z,12.97
2023-06-04T04:19:57.452Z,13.23
2023-06-04T04:22:44.373Z,13.47
2023-06-04T04:25:33.616Z,13.61
2023-06-04T04:28:21.110Z,13.65
2023-06-04T04:31:09.870Z,13.76
2023-06-04T04:33:57.289Z,13.81
2023-06-04T04:36:45.256Z,13.67
2023-06-04T04:39:32.468Z,13.53
2023-06-04T04:42:21.336Z,13.53
2023-06-04T04:45:09.083Z,13.59
2023-06-04T04:47:56.183Z,13.76
2023-06-04T04:50:43.068Z,13.88
2023-06-04T04:53:29.986Z,14.03
2023-06-04T04:56:16.871Z,14.34
2023-06-04T04:59:03.843Z,14.53
2023-06-04T05:01:50.765Z,14.57
2023-06-04T05:04:37.801Z,14.55
2023-06-04T05:07:26.002Z,14.32
2023-06-04T05:10:13.891Z,14.20
2023-06-04T05:13:06.075Z,14.14
2023-06-04T05:15:55.945Z,14.31
2023-06-04T05:18:45.599Z,14.20
2023-06-04T05:21:32.584Z,14.28
2023-06-04T05:24:19.433Z,14.27
2023-06-04T05:27:06.316Z,14.19
2023-06-04T05:29:53.197Z,14.29
2023-06-04T05:32:42.304Z,14.44
2023-06-04T05:35:29.325Z,14.61
2023-06-04T05:38:26.843Z,14.79
2023-06-04T05:41:13.989Z,14.81
2023-06-04T05:44:00.875Z,14.96
2023-06-04T05:46:47.805Z,15.12
2023-06-04T05:49:35.727Z,15.24
2023-06-04T05:52:22.577Z,15.44
2023-06-04T05:55:10.021Z,15.53
2023-06-04T05:57:56.972Z,15.73
2023-06-04T06:00:43.977Z,15.83
2023-06-04T06:03:31.475Z,15.78
2023-06-04T06:06:19.587Z,15.96
2023-06-04T06:09:06.902Z,15.99
2023-06-04T06:11:53.867Z,16.04
2023-06-04T06:14:41.063Z,16.16
2023-06-04T06:17:28.069Z,16.22
2023-06-04T06:20:18.737Z,16.55
2023-06-04T06:23:09.109Z,16.83
2023-06-04T06:25:56.610Z,16.87
2023-06-04T06:28:44.168Z,17.13
2023-06-04T06:31:31.403Z,17.39
2023-06-04T06:34:18.428Z,17.51
2023-06-04T06:37:05.696Z,17.71
2023-06-04T06:39:52.757Z,17.91
2023-06-04T06:42:39.623Z,18.04
2023-06-04T06:45:26.526Z,17.95
2023-06-04T06:48:13.444Z,17.86
2023-06-04T06:51:00.338Z,17.84
2023-06-04T06:53:47.213Z,17.68
2023-06-04T06:56:34.459Z,17.22
2023-06-04T06:59:21.686Z,16.97
2023-06-04T07:02:08.620Z,16.82
2023-06-04T07:04:55.524Z,16.61
2023-06-04T07:07:42.676Z,16.39
2023-06-04T07:10:31.125Z,16.34
2023-06-04T07:13:18.029Z,16.39
2023-06-04T07:16:05.004Z,16.36
2023-06-04T07:18:51.932Z,16.28
2023-06-04T07:21:38.765Z,16.28
2023-06-04T07:24:25.730Z,16.20
2023-06-04T07:27:15.979Z,16.22
2023-06-04T07:30:02.941Z,16.23
2023-06-04T07:32:50.137Z,16.31
2023-06-04T07:35:37.084Z,16.27
2023-06-04T07:38:26.438Z,16.28
2023-06-04T07:41:13.428Z,16.42
2023-06-04T07:44:00.700Z,16.46
2023-06-04T07:46:47.594Z,16.65
2023-06-04T07:49:34.481Z,16.86
2023-06-04T07:52:21.488Z,17.17
2023-06-04T07:55:09.534Z,17.61
2023-06-04T07:57:56.507Z,17.94
2023-06-04T08:00:43.416Z,18.14
2023-06-04T08:03:30.365Z,18.57
2023-06-04T08:06:17.517Z,18.60
2023-06-04T08:09:04.398Z,18.80
2023-06-04T08:11:51.392Z,19.09
2023-06-04T08:14:38.324Z,19.34
2023-06-04T08:17:25.393Z,19.51
2023-06-04T08:20:12.751Z,19.59
2023-06-04T08:22:59.610Z,19.53
2023-06-04T08:25:46.619Z,19.43
2023-06-04T08:28:33.451Z,19.24
2023-06-04T08:31:21.251Z,19.19
2023-06-04T08:34:08.187Z,19.38
2023-06-04T08:36:55.088Z,19.28
2023-06-04T08:39:42.272Z,19.16
2023-06-04T08:42:32.220Z,19.20
2023-06-04T08:45:21.320Z,19.18
2023-06-04T08:48:13.909Z,19.09
2023-06-04T08:51:01.025Z,18.95
2023-06-04T08:53:51.208Z,18.89
2023-06-04T08:56:38.170Z,18.97
2023-06-04T08:59:26.732Z,19.07
2023-06-04T09:02:16.905Z,19.08
2023-06-04T09:05:09.999Z,18.90
2023-06-04T09:08:02.336Z,18.95
2023-06-04T09:10:52.792Z,18.85
2023-06-04T09:13:40.969Z,18.49
2023-06-04T09:16:27.986Z,18.24
2023-06-04T09:19:16.076Z,18.42
2023-06-04T09:22:03.921Z,18.48
2023-06-04T09:24:51.268Z,18.44
2023-06-04T09:27:40.579Z,18.36
2023-06-04T09:30:27.493Z,18.37
2023-06-04T09:33:14.553Z,18.43
2023-06-04T09:36:01.500Z,18.36
2023-06-04T09:38:48.889Z,18.39
2023-06-04T09:41:35.954Z,18.21
2023-06-04T09:44:23.024Z,18.23
2023-06-04T09:47:09.879Z,18.39
2023-06-04T09:49:56.745Z,18.50
2023-06-04T09:52:43.609Z,18.70
2023-06-04T09:55:30.552Z,18.85
2023-06-04T09:58:19.451Z,19.01
2023-06-04T10:01:07.653Z,19.05
2023-06-04T10:03:56.030Z,18.84
2023-06-04T10:06:44.043Z,18.94
2023-06-04T10:09:33.324Z,19.12
2023-06-04T10:12:26.801Z,19.14
2023-06-04T10:15:14.839Z,19.18
2023-06-04T10:18:03.915Z,19.36
2023-06-04T10:20:51.315Z,19.56
2023-06-04T10:23:38.870Z,19.64
2023-06-04T10:26:26.954Z,19.94
2023-06-04T10:29:15.536Z,19.72
2023-06-04T10:32:02.543Z,19.91
2023-06-04T10:34:50.661Z,20.28
2023-06-04T10:37:37.720Z,20.36
2023-06-04T10:40:33.845Z,20.58
2023-06-04T10:43:21.690Z,20.33
2023-06-04T10:46:16.596Z,20.23
2023-06-04T10:49:03.501Z,20.41
2023-06-04T10:51:52.292Z,20.31
2023-06-04T10:54:40.382Z,20.51
2023-06-04T10:57:27.256Z,20.61
2023-06-04T11:00:15.612Z,20.67
2023-06-04T11:03:02.739Z,20.97
2023-06-04T11:05:51.510Z,21.01
2023-06-04T11:08:41.560Z,20.92
2023-06-04T11:11:28.449Z,21.12
2023-06-04T11:14:18.862Z,21.16
2023-06-04T11:17:13.320Z,21.22
2023-06-04T11:20:01.479Z,21.25
2023-06-04T11:22:53.271Z,21.48
2023-06-04T11:25:40.570Z,21.26
2023-06-04T11:28:28.177Z,21.29
2023-06-04T11:31:15.147Z,21.36
2023-06-04T11:34:02.190Z,21.57
2023-06-04T11:36:50.756Z,21.70
2023-06-04T11:39:40.588Z,21.85
2023-06-04T11:42:30.537Z,21.47
2023-06-04T11:45:21.910Z,21.53
2023-06-04T11:48:12.218Z,21.53
2023-06-04T11:51:00.104Z,21.58
2023-06-04T11:53:47.039Z,21.83
2023-06-04T11:56:33.958Z,21.86
2023-06-04T11:59:21.265Z,22.04
2023-06-04T12:02:09.122Z,22.29
2023-06-04T12:04:56.110Z,22.31
2023-06-04T12:07:43.009Z,22.33
2023-06-04T12:10:29.903Z,22.25
2023-06-04T12:13:16.860Z,22.51
2023-06-04T12:16:03.769Z,22.57
2023-06-04T12:18:52.038Z,22.47
2023-06-04T12:21:40.719Z,22.35
2023-06-04T12:24:27.627Z,22.17
2023-06-04T12:27:14.575Z,22.14
2023-06-04T12:30:04.016Z,22.11
2023-06-04T12:32:51.928Z,22.33
2023-06-04T12:35:38.972Z,22.49
2023-06-04T12:38:25.959Z,22.43
2023-06-04T12:41:12.888Z,22.37
2023-06-04T12:44:00.574Z,22.22
2023-06-04T12:46:48.248Z,22.25
2023-06-04T12:49:35.604Z,22.19
2023-06-04T12:52:22.474Z,22.13
2023-06-04T12:55:10.184Z,22.30
2023-06-04T12:57:57.099Z,21.88
2023-06-04T13:00:44.028Z,21.63
2023-06-04T13:03:31.697Z,21.58
2023-06-04T13:06:18.735Z,21.71
2023-06-04T13:09:12.831Z,21.97
2023-06-04T13:11:59.745Z,22.08
2023-06-04T13:14:46.605Z,22.10
2023-06-04T13:17:34.395Z,22.18
2023-06-04T13:20:21.402Z,22.21
2023-06-04T13:23:08.729Z,22.21
2023-06-04T13:25:55.631Z,22.29
2023-06-04T13:28:42.486Z,22.49
2023-06-04T13:31:29.437Z,22.64
2023-06-04T13:37:12.111Z,22.81
2023-06-04T13:39:59.500Z,23.02
2023-06-04T13:42:47.101Z,23.25
2023-06-04T13:45:34.247Z,23.43
2023-06-04T13:48:21.719Z,23.50
2023-06-04T13:51:08.885Z,23.52
2023-06-04T13:53:56.014Z,23.45
2023-06-04T13:56:50.511Z,23.43
2023-06-04T13:59:37.337Z,23.48
2023-06-04T14:02:24.287Z,23.46
2023-06-04T14:05:11.311Z,23.41
2023-06-04T14:07:59.187Z,23.35
2023-06-04T14:10:46.170Z,23.43
2023-06-04T14:13:33.031Z,23.39
2023-06-04T14:16:19.969Z,23.48
2023-06-04T14:19:10.000Z,23.51
2023-06-04T14:21:56.893Z,23.54
2023-06-04T14:24:43.786Z,23.58
2023-06-04T14:27:31.012Z,23.52
2023-06-04T14:30:17.908Z,23.43
2023-06-04T14:33:04.931Z,23.50
2023-06-04T14:35:51.898Z,23.46
2023-06-04T14:38:38.773Z,23.48
2023-06-04T14:41:28.221Z,23.51
2023-06-04T14:44:15.082Z,23.45
2023-06-04T14:47:01.929Z,23.36
2023-06-04T14:49:48.875Z,23.21
2023-06-04T14:52:35.737Z,23.19
2023-06-04T14:55:22.739Z,23.02
2023-06-04T14:58:09.623Z,23.04
2023-06-04T15:01:01.633Z,23.05
2023-06-04T15:03:48.985Z,23.12
2023-06-04T15:06:36.279Z,23.01
2023-06-04T15:09:23.209Z,23.01
2023-06-04T15:12:10.121Z,23.05
2023-06-04T15:14:57.011Z,23.20
2023-06-04T15:17:46.290Z,23.05
2023-06-04T15:20:34.931Z,23.08
2023-06-04T15:23:21.846Z,23.14
2023-06-04T15:26:08.738Z,23.32
2023-06-04T15:28:57.354Z,23.41
2023-06-04T15:31:44.598Z,23.51
2023-06-04T15:34:31.466Z,23.51
2023-06-04T15:37:18.423Z,23.52
2023-06-04T15:40:08.520Z,23.47
2023-06-04T15:42:55.483Z,23.17
2023-06-04T15:45:42.504Z,22.87
2023-06-04T15:48:30.381Z,22.69
2023-06-04T15:51:17.271Z,22.68
2023-06-04T15:54:05.503Z,22.72
2023-06-04T15:56:52.404Z,22.49
2023-06-04T15:59:39.334Z,22.36
2023-06-04T16:02:27.539Z,22.33
2023-06-04T16:05:14.550Z,22.30
2023-06-04T16:08:01.605Z,22.18
2023-06-04T16:10:48.644Z,22.11
2023-06-04T16:13:35.625Z,22.18
2023-06-04T16:16:22.645Z,21.98
2023-06-04T16:19:09.617Z,21.91
2023-06-04T16:21:56.901Z,21.77
2023-06-04T16:24:43.711Z,21.80
2023-06-04T16:27:30.658Z,21.70
2023-06-04T16:30:17.503Z,21.64
2023-06-04T16:33:06.867Z,21.68
2023-06-04T16:35:53.782Z,21.57
2023-06-04T16:38:40.827Z,21.61
2023-06-04T16:41:27.936Z,21.63
2023-06-04T16:44:15.117Z,21.60
2023-06-04T16:47:02.008Z,21.49
2023-06-04T16:49:49.358Z,21.39
2023-06-04T16:52:36.800Z,21.26
2023-06-04T16:55:32.471Z,21.31
2023-06-04T16:58:19.344Z,21.27
2023-06-04T17:01:09.492Z,21.14
2023-06-04T17:03:56.526Z,21.01
2023-06-04T17:06:46.429Z,20.87
2023-06-04T17:09:33.736Z,20.88
2023-06-04T17:12:20.725Z,20.90
2023-06-04T17:15:08.032Z,20.81
2023-06-04T17:18:01.479Z,20.73
2023-06-04T17:20:48.907Z,20.65
2023-06-04T17:23:37.627Z,20.57
2023-06-04T17:26:24.994Z,20.55
2023-06-04T17:29:11.917Z,20.39
2023-06-04T17:31:58.768Z,20.30
2023-06-04T17:34:50.553Z,20.24
2023-06-04T17:37:37.890Z,20.25
2023-06-04T17:40:27.300Z,20.17
2023-06-04T17:43:14.657Z,20.12
2023-06-04T17:46:01.661Z,20.02
2023-06-04T17:48:48.575Z,20.05
2023-06-04T17:51:35.535Z,20.11
2023-06-04T17:54:22.410Z,20.00
2023-06-04T17:57:09.337Z,19.98
2023-06-04T17:59:59.062Z,20.03
2023-06-04T18:02:46.733Z,20.00
2023-06-04T18:05:33.676Z,19.95
2023-06-04T18:08:20.770Z,19.98
2023-06-04T18:11:07.955Z,19.91
2023-06-04T18:13:54.972Z,19.88
2023-06-04T18:16:41.942Z,19.82
2023-06-04T18:19:28.946Z,19.83
2023-06-04T18:22:16.154Z,19.74
2023-06-04T18:25:03.302Z,19.57
2023-06-04T18:27:50.317Z,19.52
2023-06-04T18:30:37.323Z,19.42
2023-06-04T18:33:25.922Z,19.41
2023-06-04T18:36:12.821Z,19.42
2023-06-04T18:38:59.948Z,19.39
2023-06-04T18:41:49.010Z,19.36
2023-06-04T18:44:36.280Z,19.27
2023-06-04T18:47:23.663Z,19.13
2023-06-04T18:50:10.903Z,19.12
2023-06-04T18:52:59.079Z,18.97
2023-06-04T18:55:47.297Z,18.99
2023-06-04T18:58:34.296Z,18.90
2023-06-04T19:01:21.202Z,18.86
2023-06-04T19:04:08.857Z,18.91
2023-06-04T19:06:55.810Z,18.71
2023-06-04T19:09:43.028Z,18.70
2023-06-04T19:12:29.938Z,18.66
2023-06-04T19:15:18.147Z,18.61
2023-06-04T19:18:06.222Z,18.57
2023-06-04T19:20:53.163Z,18.54
2023-06-04T19:23:40.039Z,18.49
2023-06-04T19:26:27.139Z,18.44
2023-06-04T19:29:14.005Z,18.40
2023-06-04T19:32:01.171Z,18.21
2023-06-04T19:34:49.974Z,18.13
2023-06-04T19:37:37.033Z,18.10
2023-06-04T19:40:24.014Z,18.10
2023-06-04T19:43:11.179Z,18.06
2023-06-04T19:46:02.570Z,18.09
2023-06-04T19:48:49.539Z,18.12
2023-06-04T19:51:37.426Z,17.94
2023-06-04T19:54:24.389Z,17.83
2023-06-04T19:57:11.508Z,17.89
2023-06-04T19:59:58.511Z,17.89
2023-06-04T20:02:45.527Z,17.85
2023-06-04T20:05:32.433Z,17.89
2023-06-04T20:08:19.338Z,17.86
2023-06-04T20:11:06.618Z,17.87
2023-06-04T20:13:53.490Z,17.83
2023-06-04T20:16:40.907Z,17.77
2023-06-04T20:19:27.907Z,17.75
2023-06-04T20:22:14.828Z,17.75
2023-06-04T20:25:13.938Z,17.80
2023-06-04T20:28:01.026Z,17.82
2023-06-04T20:30:47.932Z,17.78
2023-06-04T20:33:34.947Z,17.76
2023-06-04T20:36:22.758Z,17.69
2023-06-04T20:39:09.844Z,17.67
2023-06-04T20:41:57.267Z,17.65
2023-06-04T20:44:44.243Z,17.67
2023-06-04T20:47:31.267Z,17.71
2023-06-04T20:50:18.159Z,17.69
2023-06-04T20:53:05.044Z,17.64
2023-06-04T20:55:52.004Z,17.54
2023-06-04T20:58:39.029Z,17.47
2023-06-04T21:01:26.214Z,17.37
2023-06-04T21:04:13.237Z,17.30
2023-06-04T21:07:00.247Z,17.29
2023-06-04T21:09:47.188Z,17.31
2023-06-04T21:12:34.064Z,17.22
2023-06-04T21:15:20.916Z,17.19
2023-06-04T21:18:07.913Z,17.13
2023-06-04T21:20:55.242Z,17.06
2023-06-04T21:23:42.198Z,17.11
2023-06-04T21:26:29.612Z,17.15
2023-06-04T21:29:16.588Z,17.15
2023-06-04T21:32:03.622Z,17.11
2023-06-04T21:34:50.767Z,16.97
2023-06-04T21:37:37.664Z,17.01
2023-06-04T21:40:24.850Z,17.04
2023-06-04T21:43:11.873Z,17.04
2023-06-04T21:45:59.235Z,17.00
2023-06-04T21:48:46.519Z,17.02
2023-06-04T21:51:33.456Z,16.99
2023-06-04T21:54:20.371Z,16.86
2023-06-04T21:57:07.269Z,16.80
2023-06-04T21:59:54.167Z,16.77
2023-06-04T22:02:41.180Z,16.68
2023-06-04T22:05:28.155Z,16.54
2023-06-04T22:08:15.063Z,16.51
2023-06-04T22:11:01.987Z,16.50
2023-06-04T22:13:49.051Z,16.49
2023-06-04T22:16:35.949Z,16.49
2023-06-04T22:19:22.890Z,16.47
2023-06-04T22:22:09.833Z,16.43
2023-06-04T22:24:56.844Z,16.44
2023-06-04T22:27:43.719Z,16.29
2023-06-04T22:30:30.687Z,16.21
2023-06-04T22:33:17.694Z,16.22
2023-06-04T22:36:04.736Z,16.21
2023-06-04T22:38:51.769Z,16.03
2023-06-04T22:41:38.807Z,15.99
2023-06-04T22:44:25.676Z,16.02
2023-06-04T22:47:12.555Z,16.13
2023-06-04T22:49:59.430Z,16.10
2023-06-04T22:52:46.306Z,15.91
2023-06-04T22:55:33.285Z,15.85
2023-06-04T22:58:20.519Z,15.92
2023-06-04T23:01:07.579Z,16.02
2023-06-04T23:03:54.751Z,16.03
2023-06-04T23:06:41.757Z,16.12
2023-06-04T23:09:28.631Z,16.06
2023-06-04T23:12:15.759Z,16.12
2023-06-04T23:15:03.245Z,16.08
2023-06-04T23:17:50.843Z,16.13
2023-06-04T23:20:37.853Z,16.15
2023-06-04T23:23:24.774Z,16.15
2023-06-04T23:26:11.675Z,16.09
2023-06-04T23:28:58.548Z,16.10
2023-06-04T23:31:46.019Z,16.09
2023-06-04T23:34:32.938Z,16.04
2023-06-04T23:37:19.848Z,15.99
2023-06-04T23:40:07.731Z,15.99
2023-06-04T23:42:54.597Z,15.97
2023-06-04T23:45:41.441Z,15.98
2023-06-04T23:48:28.324Z,15.96
2023-06-04T23:51:15.242Z,15.87
2023-06-04T23:54:02.142Z,15.91
2023-06-04T23:56:50.805Z,15.91
2023-06-04T23:59:37.717Z,15.83
